createdAt,value
2023-02-27T00:00:57.331Z,4.20
2023-02-27T00:10:56.985Z,4.90
2023-02-27T00:20:56.620Z,4.40
2023-02-27T00:30:56.374Z,4.30
2023-02-27T00:40:55.877Z,5.50
2023-02-27T00:50:55.821Z,4.90
2023-02-27T01:00:49.644Z,4.00
2023-02-27T01:10:49.445Z,3.70
2023-02-27T01:20:48.902Z,3.90
2023-02-27T01:30:48.620Z,3.50
2023-02-27T01:40:48.160Z,4.90
2023-02-27T01:50:47.826Z,5.20
2023-02-27T02:00:47.501Z,5.00
2023-02-27T02:10:41.582Z,5.30
2023-02-27T02:20:41.201Z,4.80
2023-02-27T02:30:40.861Z,4.60
2023-02-27T02:40:40.533Z,4.20
2023-02-27T02:50:40.248Z,5.40
2023-02-27T03:00:39.782Z,4.40
2023-02-27T03:10:39.362Z,4.40
2023-02-27T03:20:33.503Z,4.60
2023-02-27T03:30:33.177Z,5.70
2023-02-27T03:40:32.970Z,5.80
2023-02-27T03:50:32.452Z,5.10
2023-02-27T04:00:32.091Z,5.90
2023-02-27T04:10:33.284Z,4.60
2023-02-27T04:20:31.479Z,4.70
2023-02-27T04:30:25.492Z,4.30
2023-02-27T04:40:25.103Z,5.90
2023-02-27T04:50:24.770Z,7.10
2023-02-27T05:00:24.407Z,4.70
2023-02-27T05:10:24.038Z,5.00
2023-02-27T05:20:23.690Z,3.70
2023-02-27T05:30:18.318Z,5.40
2023-02-27T05:40:17.775Z,5.30
2023-02-27T05:50:17.427Z,4.40
2023-02-27T06:00:17.065Z,5.40
2023-02-27T06:10:16.897Z,6.60
2023-02-27T06:20:16.346Z,5.90
2023-02-27T06:30:15.992Z,3.90
2023-02-27T06:40:10.302Z,6.90
2023-02-27T06:50:09.806Z,5.00
2023-02-27T07:00:09.436Z,4.60
2023-02-27T07:10:09.562Z,5.40
2023-02-27T07:20:08.723Z,4.60
2023-02-27T07:30:08.533Z,4.70
2023-02-27T07:40:07.996Z,4.80
2023-02-27T07:50:02.984Z,4.50
2023-02-27T08:00:01.813Z,4.70
2023-02-27T08:10:01.455Z,2.30
2023-02-27T08:20:02.702Z,4.30
2023-02-27T08:30:02.832Z,3.70
2023-02-27T08:40:00.934Z,5.50
2023-02-27T08:49:56.216Z,3.30
2023-02-27T08:59:54.555Z,3.60
2023-02-27T09:09:54.464Z,3.50
2023-02-27T09:19:55.392Z,5.70
2023-02-27T09:29:53.606Z,4.60
2023-02-27T09:39:53.082Z,3.30
2023-02-27T09:49:52.777Z,3.10
2023-02-27T09:59:52.850Z,3.90
2023-02-27T10:09:52.055Z,6.30
2023-02-27T10:19:45.857Z,1.90
2023-02-27T10:29:45.508Z,4.00
2023-02-27T10:39:44.981Z,5.90
2023-02-27T10:49:44.643Z,2.40
2023-02-27T10:59:44.269Z,5.20
2023-02-27T11:09:43.883Z,3.90
2023-02-27T11:19:48.519Z,3.40
2023-02-27T11:29:43.158Z,4.70
2023-02-27T11:39:42.764Z,4.10
2023-02-27T11:49:42.410Z,6.80
2023-02-27T11:59:42.309Z,5.80
2023-02-27T12:09:36.422Z,3.50
2023-02-27T12:19:36.019Z,3.70
2023-02-27T12:29:36.145Z,3.80
2023-02-27T12:39:38.246Z,2.10
2023-02-27T12:49:35.116Z,2.70
2023-02-27T12:59:34.555Z,2.60
2023-02-27T13:09:34.280Z,3.30
2023-02-27T13:19:33.756Z,4.40
2023-02-27T13:29:34.802Z,3.70
2023-02-27T13:39:33.010Z,6.00
2023-02-27T13:49:32.672Z,4.80
2023-02-27T13:59:32.238Z,4.30
2023-02-27T14:09:31.989Z,4.60
2023-02-27T14:19:31.480Z,3.20
2023-02-27T14:29:31.074Z,5.00
2023-02-27T14:39:31.392Z,3.00
2023-02-27T14:49:30.446Z,5.50
2023-02-27T14:59:29.960Z,3.70
2023-02-27T15:09:29.534Z,2.60
2023-02-27T15:19:24.241Z,10.30
2023-02-27T15:29:23.681Z,5.80
2023-02-27T15:39:23.621Z,6.80
2023-02-27T15:49:22.947Z,16.00
2023-02-27T15:59:22.568Z,11.70
2023-02-27T16:09:22.188Z,9.20
2023-02-27T16:19:21.806Z,10.10
2023-02-27T16:29:21.438Z,6.80
2023-02-27T16:39:21.191Z,7.00
2023-02-27T16:49:20.704Z,5.50
2023-02-27T16:59:20.466Z,9.40
2023-02-27T17:09:19.903Z,8.60
2023-02-27T17:19:20.241Z,7.20
2023-02-27T17:29:19.172Z,9.30
2023-02-27T17:39:19.247Z,16.30
2023-02-27T17:49:18.592Z,11.50
2023-02-27T17:59:18.261Z,8.80
2023-02-27T18:09:17.667Z,11.10
2023-02-27T18:19:12.585Z,14.90
2023-02-27T18:29:11.848Z,14.70
2023-02-27T18:39:11.489Z,14.00
2023-02-27T18:49:11.223Z,22.60
2023-02-27T18:59:10.851Z,7.60
2023-02-27T19:09:10.514Z,5.80
2023-02-27T19:19:09.959Z,8.50
2023-02-27T19:29:09.597Z,7.10
2023-02-27T19:39:09.348Z,10.10
2023-02-27T19:49:09.004Z,7.70
2023-02-27T19:59:08.913Z,4.80
2023-02-27T20:09:08.329Z,7.40
2023-02-27T20:19:02.629Z,5.70
2023-02-27T20:29:02.402Z,5.10
2023-02-27T20:39:02.185Z,3.90
2023-02-27T20:49:01.499Z,5.40
2023-02-27T20:59:01.097Z,4.30
2023-02-27T21:09:00.976Z,3.60
2023-02-27T21:19:00.326Z,5.30
2023-02-27T21:29:03.010Z,5.00
2023-02-27T21:38:59.699Z,3.90
2023-02-27T21:48:59.346Z,4.40
2023-02-27T21:58:53.756Z,4.50
2023-02-27T22:08:53.403Z,4.10
2023-02-27T22:18:53.012Z,4.30
2023-02-27T22:28:52.883Z,3.60
2023-02-27T22:38:52.268Z,5.00
2023-02-27T22:48:51.903Z,3.80
2023-02-27T22:58:51.528Z,4.40
2023-02-27T23:08:51.187Z,4.30
2023-02-27T23:18:50.806Z,4.50
2023-02-27T23:28:45.080Z,7.60
2023-02-27T23:38:44.569Z,5.10
2023-02-27T23:48:45.711Z,5.00
2023-02-27T23:58:43.988Z,4.90
